Time;durP1;ratioP1;P1;durP2;ratioP2;P2;SDS_P1;SDS_P2;PMS_P1;PMS_P2;Temp;Humidity;BMP_temperature;BMP_pressure;BME280_temperature;BME280_humidity;BME280_pressure;Samples;Min_cycle;Max_cycle;Signal;HPM_P1;HPM_P2
2022/01/01 00:01:11;;;;;;;8.55;6.07;;;0.70;99.90;;;;;;5072973;28;20516;-76
2022/01/01 00:03:38;;;;;;;8.32;6.53;;;0.70;99.90;;;;;;5084149;28;20489;-77
2022/01/01 00:06:05;;;;;;;12.27;9.05;;;0.70;99.90;;;;;;5078419;28;20056;-75
2022/01/01 00:08:34;;;;;;;20.98;13.65;;;0.70;99.90;;;;;;5081296;28;20079;-76
2022/01/01 00:11:01;;;;;;;11.55;8.10;;;0.70;99.90;;;;;;5072555;28;20412;-76
2022/01/01 00:13:28;;;;;;;9.45;7.07;;;0.70;99.90;;;;;;5082921;28;20105;-76
2022/01/01 00:15:56;;;;;;;10.75;6.50;;;0.70;99.90;;;;;;5087077;28;20083;-76
2022/01/01 00:18:23;;;;;;;8.85;6.40;;;0.60;99.90;;;;;;5086003;28;20139;-75
2022/01/01 00:20:50;;;;;;;8.32;5.72;;;0.60;99.90;;;;;;5087703;28;20143;-76
2022/01/01 00:23:18;;;;;;;5.85;4.25;;;0.60;99.90;;;;;;5085070;28;20048;-76
2022/01/01 00:25:47;;;;;;;5.65;4.65;;;0.60;99.90;;;;;;5088076;28;20117;-76
2022/01/01 00:28:15;;;;;;;6.15;4.70;;;0.60;99.90;;;;;;5087541;28;20048;-76
2022/01/01 00:30:42;;;;;;;5.97;4.38;;;0.60;99.90;;;;;;5087093;28;20044;-76
2022/01/01 00:33:09;;;;;;;7.68;5.05;;;0.60;99.90;;;;;;5082340;28;20051;-77
2022/01/01 00:35:38;;;;;;;5.30;4.30;;;0.60;99.90;;;;;;5084401;28;20063;-76
2022/01/01 00:38:05;;;;;;;5.13;3.95;;;0.60;99.90;;;;;;5100368;28;20051;-77
2022/01/01 00:40:32;;;;;;;4.63;3.45;;;0.60;99.90;;;;;;5087263;28;20052;-77
2022/01/01 00:43:02;;;;;;;3.97;3.17;;;0.50;99.90;;;;;;5087537;28;20052;-77
2022/01/01 00:45:29;;;;;;;3.20;2.65;;;0.60;99.90;;;;;;5083518;28;20051;-75
2022/01/01 00:47:56;;;;;;;4.40;2.90;;;0.60;99.90;;;;;;5070934;28;20512;-76
2022/01/01 00:50:24;;;;;;;5.55;3.30;;;0.60;99.90;;;;;;5081720;28;20415;-77
2022/01/01 00:52:52;;;;;;;4.75;3.25;;;0.50;99.90;;;;;;5089342;28;20063;-77
2022/01/01 00:55:20;;;;;;;3.83;3.33;;;0.50;99.90;;;;;;5074213;28;20052;-77
2022/01/01 00:57:48;;;;;;;36.97;16.60;;;0.50;99.90;;;;;;5084997;28;20141;-77
2022/01/01 01:00:16;;;;;;;3.80;3.38;;;0.60;99.90;;;;;;5083489;28;20071;-78
2022/01/01 01:02:44;;;;;;;4.25;2.80;;;0.60;99.90;;;;;;5078407;28;20044;-78
2022/01/01 01:05:11;;;;;;;4.47;2.83;;;0.60;99.90;;;;;;5083635;28;20087;-78
2022/01/01 01:07:39;;;;;;;4.53;3.00;;;0.60;99.90;;;;;;5074113;28;20047;-75
2022/01/01 01:10:07;;;;;;;5.88;4.05;;;0.60;99.90;;;;;;5087639;28;20048;-76
2022/01/01 01:12:40;;;;;;;5.65;4.13;;;0.60;99.90;;;;;;5067731;28;20143;-74
2022/01/01 01:15:10;;;;;;;;;;;0.50;99.90;;;;;;5070617;28;20040;-74
2022/01/01 01:17:38;;;;;;;5.47;3.80;;;0.50;99.90;;;;;;5077144;28;19931;-75
2022/01/01 01:20:07;;;;;;;4.82;3.97;;;0.50;99.90;;;;;;5093076;28;20051;-75
2022/01/01 01:22:34;;;;;;;5.90;3.88;;;0.60;99.90;;;;;;5093476;28;20052;-75
2022/01/01 01:25:01;;;;;;;4.45;3.47;;;0.50;99.90;;;;;;5075410;28;20043;-75
2022/01/01 01:27:30;;;;;;;2.67;2.47;;;0.60;99.90;;;;;;5087218;28;20134;-73
2022/01/01 01:29:58;;;;;;;2.97;2.78;;;0.50;99.90;;;;;;5080246;28;20508;-74
2022/01/01 01:32:25;;;;;;;2.40;2.20;;;0.50;99.90;;;;;;5084433;28;20044;-74
2022/01/01 01:34:54;;;;;;;4.03;2.65;;;0.50;99.90;;;;;;5081331;28;20504;-75
2022/01/01 01:37:23;;;;;;;2.60;2.40;;;0.50;99.90;;;;;;5090143;28;20093;-74
2022/01/01 01:39:50;;;;;;;2.65;2.30;;;0.50;99.90;;;;;;5079033;28;20386;-74
2022/01/01 01:42:17;;;;;;;2.63;1.95;;;0.40;99.90;;;;;;5088623;28;20075;-74
2022/01/01 01:44:47;;;;;;;2.28;2.05;;;0.50;99.90;;;;;;5079386;28;20040;-74
2022/01/01 01:47:16;;;;;;;2.30;1.67;;;0.40;99.90;;;;;;5085461;28;20048;-74
2022/01/01 01:49:46;;;;;;;2.75;2.00;;;0.40;99.90;;;;;;5091105;28;20102;-74
2022/01/01 01:52:17;;;;;;;1.88;1.70;;;0.40;99.90;;;;;;5075770;28;20538;-74
2022/01/01 01:54:44;;;;;;;2.15;1.95;;;0.40;99.90;;;;;;5083522;28;20051;-74
2022/01/01 01:57:12;;;;;;;2.88;1.35;;;0.40;99.90;;;;;;5084814;28;20131;-73
2022/01/01 01:59:40;;;;;;;1.60;1.50;;;0.40;99.90;;;;;;5078327;28;20050;-73
2022/01/01 02:02:09;;;;;;;2.13;1.70;;;0.30;99.90;;;;;;5079329;28;20106;-74
2022/01/01 02:04:36;;;;;;;2.17;1.73;;;0.40;99.90;;;;;;5071690;28;20048;-74
2022/01/01 02:07:07;;;;;;;2.38;1.63;;;0.30;99.90;;;;;;5089332;28;20059;-74
2022/01/01 02:09:38;;;;;;;2.28;2.08;;;0.30;99.90;;;;;;5088822;28;20051;-75
2022/01/01 02:12:07;;;;;;;4.57;2.10;;;0.30;99.90;;;;;;5091055;28;20051;-75
2022/01/01 02:17:44;;;;;;;2.22;2.03;;;0.20;99.90;;;;;;5110479;27;20753;-76
2022/01/01 02:20:15;;;;;;;1.80;1.70;;;0.20;99.90;;;;;;5099719;28;20045;-76
2022/01/01 02:22:47;;;;;;;2.30;1.90;;;0.20;99.90;;;;;;5058557;28;20063;-76
2022/01/01 02:25:16;;;;;;;1.67;1.58;;;0.20;99.90;;;;;;5066641;28;20155;-76
2022/01/01 02:27:44;;;;;;;1.88;1.77;;;0.20;99.90;;;;;;5048549;28;20047;-76
2022/01/01 02:30:14;;;;;;;1.75;1.65;;;0.20;99.90;;;;;;5067560;28;20063;-76
2022/01/01 02:32:42;;;;;;;1.75;1.52;;;0.20;99.90;;;;;;5081570;28;20052;-76
2022/01/01 02:35:18;;;;;;;2.03;1.80;;;0.10;99.90;;;;;;5066747;28;20041;-76
2022/01/01 02:37:46;;;;;;;1.60;1.50;;;0.10;99.90;;;;;;5067021;28;20130;-75
2022/01/01 02:40:14;;;;;;;1.92;1.60;;;0.10;99.90;;;;;;5065930;28;20045;-75
2022/01/01 02:42:43;;;;;;;3.15;1.63;;;0.10;99.90;;;;;;5067076;28;20131;-74
2022/01/01 02:45:12;;;;;;;2.97;1.83;;;0.10;99.90;;;;;;5065912;28;20044;-74
2022/01/01 02:47:40;;;;;;;1.20;1.10;;;0.00;99.90;;;;;;5067864;28;20117;-74
2022/01/01 02:50:10;;;;;;;1.70;1.42;;;0.00;99.90;;;;;;5065378;28;20143;-74
2022/01/01 02:52:39;;;;;;;1.63;1.20;;;0.00;99.90;;;;;;5067756;28;20052;-74
2022/01/01 02:55:08;;;;;;;2.53;1.50;;;0.00;99.90;;;;;;5066351;28;20147;-74
2022/01/01 02:57:35;;;;;;;0.82;0.80;;;0.00;99.90;;;;;;5067805;28;20095;-73
2022/01/01 03:00:05;;;;;;;1.02;1.02;;;0.00;99.90;;;;;;5063121;28;20147;-74
2022/01/01 03:02:32;;;;;;;1.50;1.13;;;0.00;99.90;;;;;;5065793;28;20513;-74
2022/01/01 03:05:00;;;;;;;0.80;0.80;;;0.00;99.90;;;;;;5079473;28;20049;-75
2022/01/01 03:07:27;;;;;;;1.02;0.93;;;-0.10;99.90;;;;;;5066223;28;20114;-75
2022/01/01 03:09:56;;;;;;;1.27;1.00;;;-0.20;99.90;;;;;;5064772;28;20497;-75
2022/01/01 03:12:23;;;;;;;1.45;1.25;;;-0.20;99.90;;;;;;5067557;28;20485;-75
2022/01/01 03:14:50;;;;;;;1.60;1.30;;;-0.20;99.90;;;;;;5066935;28;20045;-75
2022/01/01 03:17:18;;;;;;;1.10;0.90;;;-0.20;99.90;;;;;;5064164;28;20517;-75
2022/01/01 03:19:48;;;;;;;1.73;1.50;;;-0.20;99.90;;;;;;5066571;28;20398;-74
2022/01/01 03:22:15;;;;;;;1.50;1.20;;;-0.30;99.90;;;;;;5065745;28;20461;-74
2022/01/01 03:24:43;;;;;;;1.58;1.45;;;-0.20;99.90;;;;;;5064455;28;20437;-74
2022/01/01 03:27:12;;;;;;;1.45;1.35;;;-0.30;99.90;;;;;;5061913;28;20584;-74
2022/01/01 03:29:40;;;;;;;1.98;1.63;;;-0.30;99.90;;;;;;5068384;28;20041;-75
2022/01/01 03:32:09;;;;;;;1.60;1.50;;;-0.30;99.90;;;;;;5050981;28;20049;-75
2022/01/01 03:34:37;;;;;;;2.28;1.55;;;-0.30;99.90;;;;;;5051280;28;20152;-75
2022/01/01 03:37:05;;;;;;;2.65;1.75;;;-0.30;99.90;;;;;;5050692;28;20052;-75
2022/01/01 03:39:32;;;;;;;2.83;2.13;;;-0.30;99.90;;;;;;5053466;28;20053;-74
2022/01/01 03:42:04;;;;;;;3.67;1.30;;;-0.30;99.90;;;;;;5052302;28;20452;-76
2022/01/01 03:44:33;;;;;;;1.88;1.50;;;-0.30;99.90;;;;;;5053246;28;20444;-74
2022/01/01 03:47:09;;;;;;;1.80;1.20;;;-0.30;99.90;;;;;;5051886;28;20053;-74
2022/01/01 03:49:38;;;;;;;1.55;1.33;;;-0.30;99.90;;;;;;5053366;28;20056;-73
2022/01/01 03:52:06;;;;;;;2.40;1.50;;;-0.30;99.90;;;;;;5053375;28;20048;-73
2022/01/01 03:54:34;;;;;;;1.83;1.63;;;-0.30;99.90;;;;;;5051088;28;20053;-73
2022/01/01 03:57:02;;;;;;;2.80;1.80;;;-0.40;99.90;;;;;;5053526;28;20060;-74
2022/01/01 03:59:29;;;;;;;3.22;1.67;;;-0.40;99.90;;;;;;5051482;28;20052;-74
2022/01/01 04:01:58;;;;;;;2.55;1.98;;;-0.30;99.90;;;;;;5052668;28;20056;-74
2022/01/01 04:04:26;;;;;;;1.80;1.38;;;-0.40;99.90;;;;;;5050977;28;20053;-74
2022/01/01 04:06:54;;;;;;;2.22;1.70;;;-0.40;99.90;;;;;;5051938;28;20045;-74
2022/01/01 04:09:22;;;;;;;2.03;1.60;;;-0.40;99.90;;;;;;5052675;28;20467;-74
2022/01/01 04:11:51;;;;;;;2.10;1.83;;;-0.40;99.90;;;;;;5051616;28;20041;-74
2022/01/01 04:14:18;;;;;;;2.05;1.63;;;-0.40;99.90;;;;;;5047673;28;20538;-74
2022/01/01 04:16:47;;;;;;;1.98;1.73;;;-0.40;99.90;;;;;;5052445;28;20608;-75
2022/01/01 04:19:15;;;;;;;1.85;1.65;;;-0.40;99.90;;;;;;5052537;28;20045;-74
2022/01/01 04:21:43;;;;;;;2.35;1.67;;;-0.40;99.90;;;;;;5051634;28;20394;-74
2022/01/01 04:24:11;;;;;;;3.10;1.92;;;-0.40;99.90;;;;;;5051414;28;20059;-74
2022/01/01 04:26:38;;;;;;;1.88;1.50;;;-0.30;99.90;;;;;;5068087;28;20495;-74
2022/01/01 04:29:06;;;;;;;1.65;1.55;;;-0.30;99.90;;;;;;5063992;28;20069;-74
2022/01/01 04:31:33;;;;;;;1.88;1.77;;;-0.30;99.90;;;;;;5037364;28;20052;-74
2022/01/01 04:34:01;;;;;;;2.28;1.63;;;-0.30;99.90;;;;;;5052043;28;20504;-74
2022/01/01 04:36:30;;;;;;;4.00;2.00;;;-0.30;99.90;;;;;;5082662;28;20156;-74
2022/01/01 04:38:57;;;;;;;2.58;2.05;;;-0.30;99.90;;;;;;5050957;28;20053;-74
2022/01/01 04:41:24;;;;;;;3.08;1.60;;;-0.30;99.90;;;;;;5050239;28;20127;-74
2022/01/01 04:43:51;;;;;;;2.20;2.00;;;-0.30;99.90;;;;;;5051663;28;20140;-76
2022/01/01 04:46:19;;;;;;;1.90;1.73;;;-0.30;99.90;;;;;;5066195;28;20049;-75
2022/01/01 04:48:46;;;;;;;2.35;2.00;;;-0.30;99.90;;;;;;5052174;28;20573;-75
2022/01/01 04:51:14;;;;;;;3.10;1.85;;;-0.30;99.90;;;;;;5032048;28;20048;-76
2022/01/01 04:53:44;;;;;;;1.60;1.40;;;-0.30;99.90;;;;;;5052264;28;20049;-76
2022/01/01 04:56:17;;;;;;;2.17;1.98;;;-0.30;99.90;;;;;;5051644;28;20048;-75
2022/01/01 04:58:45;;;;;;;1.58;1.48;;;-0.30;99.90;;;;;;5050793;28;20045;-75
2022/01/01 05:01:13;;;;;;;3.00;1.48;;;-0.30;99.90;;;;;;5050628;28;20132;-75
2022/01/01 05:03:41;;;;;;;1.55;1.45;;;-0.30;99.90;;;;;;5050872;28;20591;-75
2022/01/01 05:06:08;;;;;;;1.88;1.70;;;-0.20;99.90;;;;;;5066802;28;20072;-76
2022/01/01 05:08:35;;;;;;;2.13;1.90;;;-0.30;99.90;;;;;;5066052;28;20052;-76
2022/01/01 05:11:04;;;;;;;2.85;1.73;;;-0.30;99.90;;;;;;5050238;28;20179;-76
2022/01/01 05:13:32;;;;;;;1.65;1.52;;;-0.20;99.90;;;;;;5049460;28;20056;-77
2022/01/01 05:15:59;;;;;;;2.15;1.90;;;-0.20;99.90;;;;;;5049551;28;20045;-77
2022/01/01 05:18:27;;;;;;;1.90;1.70;;;-0.30;99.90;;;;;;5049318;28;20106;-77
2022/01/01 05:20:54;;;;;;;2.10;1.90;;;-0.30;99.90;;;;;;5049631;28;20045;-77
2022/01/01 05:23:22;;;;;;;2.63;2.10;;;-0.30;99.90;;;;;;5049800;28;20148;-77
2022/01/01 05:25:49;;;;;;;3.22;1.90;;;-0.30;99.90;;;;;;5049008;28;20037;-77
2022/01/01 05:28:18;;;;;;;2.33;1.95;;;-0.30;99.90;;;;;;5046873;28;20471;-76
2022/01/01 05:30:45;;;;;;;2.10;1.75;;;-0.30;99.90;;;;;;5042435;28;20075;-77
2022/01/01 05:33:13;;;;;;;2.50;1.50;;;-0.30;99.90;;;;;;5032183;28;20058;-76
2022/01/01 05:35:40;;;;;;;2.20;2.00;;;-0.30;99.90;;;;;;5031073;28;20053;-76
2022/01/01 05:38:07;;;;;;;3.42;2.00;;;-0.30;99.90;;;;;;5049335;28;20087;-76
2022/01/01 05:40:34;;;;;;;1.70;1.60;;;-0.30;99.90;;;;;;5049667;28;20098;-77
2022/01/01 05:43:02;;;;;;;3.05;2.13;;;-0.30;99.90;;;;;;5051017;28;20053;-76
2022/01/01 05:45:31;;;;;;;2.75;1.65;;;-0.30;99.90;;;;;;5048069;28;20647;-76
2022/01/01 05:47:58;;;;;;;2.42;1.50;;;-0.30;99.90;;;;;;5050957;28;20049;-77
2022/01/01 05:50:25;;;;;;;1.60;1.48;;;-0.30;99.90;;;;;;5049358;28;20431;-76
2022/01/01 05:52:53;;;;;;;1.45;1.35;;;-0.40;99.90;;;;;;5049948;28;20487;-76
2022/01/01 05:55:20;;;;;;;1.52;1.08;;;-0.40;99.90;;;;;;5048571;28;20041;-76
2022/01/01 05:57:47;;;;;;;1.38;1.25;;;-0.50;99.90;;;;;;5048986;28;20056;-77
2022/01/01 06:00:16;;;;;;;1.60;1.50;;;-0.50;99.90;;;;;;5050732;28;20128;-75
2022/01/01 06:02:45;;;;;;;2.78;1.42;;;-0.50;99.90;;;;;;5050595;28;20048;-75
2022/01/01 06:05:12;;;;;;;2.00;1.20;;;-0.50;99.90;;;;;;5048366;28;20049;-75
2022/01/01 06:07:40;;;;;;;1.83;1.73;;;-0.50;99.90;;;;;;5049680;28;20124;-75
2022/01/01 06:10:08;;;;;;;2.28;1.70;;;-0.50;99.90;;;;;;5051005;28;20143;-75
2022/01/01 06:12:39;;;;;;;2.72;1.60;;;-0.50;99.90;;;;;;5033192;28;20045;-76
2022/01/01 06:15:07;;;;;;;1.40;1.30;;;-0.50;99.90;;;;;;5048841;28;20413;-76
2022/01/01 06:17:34;;;;;;;1.92;1.60;;;-0.50;99.90;;;;;;5048583;28;20483;-76
2022/01/01 06:20:04;;;;;;;1.67;1.42;;;-0.50;99.90;;;;;;5062608;28;20053;-76
2022/01/01 06:22:31;;;;;;;1.90;1.50;;;-0.50;99.90;;;;;;5036120;28;20149;-75
2022/01/01 06:24:59;;;;;;;1.70;1.60;;;-0.60;99.90;;;;;;5032124;28;20049;-76
2022/01/01 06:27:26;;;;;;;2.00;1.80;;;-0.60;99.90;;;;;;5049641;28;20095;-76
2022/01/01 06:29:54;;;;;;;2.30;1.92;;;-0.50;99.90;;;;;;5049733;28;20060;-76
2022/01/01 06:32:21;;;;;;;3.00;1.95;;;-0.50;99.90;;;;;;5047505;28;20051;-76
2022/01/01 06:34:49;;;;;;;3.75;2.00;;;-0.50;99.90;;;;;;5035633;28;20057;-77
2022/01/01 06:37:17;;;;;;;2.00;1.80;;;-0.50;99.90;;;;;;5050115;28;20103;-76
2022/01/01 06:39:45;;;;;;;1.55;1.38;;;-0.50;99.90;;;;;;5065698;28;20072;-77
2022/01/01 06:42:13;;;;;;;3.13;1.67;;;-0.50;99.90;;;;;;5045543;28;20055;-77
2022/01/01 06:44:42;;;;;;;2.05;1.50;;;-0.50;99.90;;;;;;5046215;28;20057;-75
2022/01/01 06:47:10;;;;;;;2.55;1.55;;;-0.60;99.90;;;;;;5050534;28;20053;-77
2022/01/01 06:49:38;;;;;;;1.80;1.55;;;-0.70;99.90;;;;;;5029327;28;20061;-76
2022/01/01 06:52:06;;;;;;;1.65;1.50;;;-0.70;99.90;;;;;;5048601;28;20057;-74
2022/01/01 06:54:36;;;;;;;1.52;1.42;;;-0.70;99.90;;;;;;5049075;28;20071;-75
2022/01/01 06:57:05;;;;;;;2.42;1.50;;;-0.70;99.90;;;;;;5049996;28;20044;-74
2022/01/01 06:59:42;;;;;;;2.00;1.77;;;-0.70;99.90;;;;;;5041168;28;20061;-78
2022/01/01 07:02:11;;;;;;;1.83;1.55;;;-0.70;99.90;;;;;;5063216;28;20099;-77
2022/01/01 07:04:39;;;;;;;1.75;1.58;;;-0.70;99.90;;;;;;5052643;28;20063;-76
2022/01/01 07:07:07;;;;;;;1.63;1.52;;;-0.60;99.90;;;;;;5054578;28;20128;-76
2022/01/01 07:09:36;;;;;;;1.60;1.50;;;-0.60;99.90;;;;;;5053085;28;20469;-76
2022/01/01 07:12:05;;;;;;;2.20;1.90;;;-0.60;99.90;;;;;;5035793;28;20052;-75
2022/01/01 07:14:33;;;;;;;1.80;1.70;;;-0.60;99.90;;;;;;5051795;28;20076;-76
2022/01/01 07:17:01;;;;;;;2.83;1.98;;;-0.60;99.90;;;;;;5053543;28;20467;-76
2022/01/01 07:19:28;;;;;;;4.28;2.00;;;-0.60;99.90;;;;;;5047062;28;20136;-75
2022/01/01 07:22:00;;;;;;;1.65;1.55;;;-0.50;99.90;;;;;;5059103;28;20045;-75
2022/01/01 07:24:27;;;;;;;4.05;2.05;;;-0.50;99.90;;;;;;5053375;28;20029;-75
2022/01/01 07:26:56;;;;;;;2.40;2.20;;;-0.50;99.90;;;;;;5039967;28;20052;-76
2022/01/01 07:29:25;;;;;;;2.20;2.00;;;-0.50;99.90;;;;;;5050481;28;20127;-75
2022/01/01 07:31:53;;;;;;;2.30;2.08;;;-0.50;99.90;;;;;;5068028;28;20123;-77
2022/01/01 07:34:21;;;;;;;2.30;2.10;;;-0.40;99.90;;;;;;5052674;28;20040;-75
2022/01/01 07:36:49;;;;;;;4.05;2.55;;;-0.50;99.90;;;;;;5046551;28;20064;-77
2022/01/01 07:39:17;;;;;;;2.20;2.00;;;-0.50;99.90;;;;;;5047531;28;20701;-78
2022/01/01 07:41:44;;;;;;;2.35;2.00;;;-0.50;99.90;;;;;;5047393;28;20049;-78
2022/01/01 07:44:13;;;;;;;3.35;2.15;;;-0.50;99.90;;;;;;5065699;28;20136;-76
2022/01/01 07:46:41;;;;;;;2.80;2.45;;;-0.60;99.90;;;;;;5047578;28;20504;-77
2022/01/01 07:49:08;;;;;;;4.40;2.40;;;-0.60;99.90;;;;;;5049995;28;20037;-77
2022/01/01 07:51:36;;;;;;;3.78;2.50;;;-0.50;99.90;;;;;;5049671;28;20136;-77
2022/01/01 07:54:04;;;;;;;4.82;3.00;;;-0.50;99.90;;;;;;5047873;28;20045;-77
2022/01/01 07:56:31;;;;;;;3.08;2.10;;;-0.50;99.90;;;;;;5045673;28;20060;-76
2022/01/01 07:59:01;;;;;;;3.95;2.50;;;-0.50;99.90;;;;;;5048599;28;20119;-77
2022/01/01 08:01:29;;;;;;;2.85;2.60;;;-0.50;99.90;;;;;;5050123;28;20063;-78
2022/01/01 08:04:02;;;;;;;4.13;2.80;;;-0.60;99.90;;;;;;5053158;28;20049;-85
2022/01/01 08:06:30;;;;;;;2.90;2.58;;;-0.60;99.90;;;;;;5049745;28;20067;-87
2022/01/01 08:08:58;;;;;;;6.32;3.08;;;-0.60;99.90;;;;;;5050488;28;20568;-84
2022/01/01 08:11:26;;;;;;;3.25;3.03;;;-0.60;99.90;;;;;;5030775;28;20077;-84
2022/01/01 08:13:55;;;;;;;2.92;2.55;;;-0.60;99.90;;;;;;5050176;28;20513;-86
2022/01/01 08:16:26;;;;;;;2.70;2.50;;;-0.60;99.90;;;;;;5046354;28;20132;-84
2022/01/01 08:19:00;;;;;;;2.67;2.47;;;-0.60;99.90;;;;;;5046976;28;20053;-84
2022/01/01 08:21:29;;;;;;;2.72;2.53;;;-0.50;99.90;;;;;;5050223;28;20049;-81
2022/01/01 08:24:00;;;;;;;2.63;2.43;;;-0.50;99.90;;;;;;5046731;28;20114;-80
2022/01/01 08:26:32;;;;;;;2.70;2.50;;;-0.50;99.90;;;;;;5051296;28;20060;-80
2022/01/01 08:28:59;;;;;;;4.78;2.30;;;-0.50;99.90;;;;;;5038738;28;20148;-80
2022/01/01 08:31:27;;;;;;;2.00;1.90;;;-0.50;99.90;;;;;;5043667;28;20045;-80
2022/01/01 08:33:58;;;;;;;2.30;2.10;;;-0.60;99.90;;;;;;5047307;28;20076;-80
2022/01/01 08:36:26;;;;;;;3.03;2.72;;;-0.60;99.90;;;;;;5065369;28;20049;-82
2022/01/01 08:38:54;;;;;;;2.50;2.30;;;-0.60;99.90;;;;;;5046072;28;20232;-80
2022/01/01 08:41:34;;;;;;;2.90;2.70;;;-0.60;99.90;;;;;;5048951;28;20064;-83
2022/01/01 08:44:09;;;;;;;2.60;2.38;;;-0.50;99.90;;;;;;5030048;28;20045;-83
2022/01/01 08:46:37;;;;;;;2.50;2.30;;;-0.40;99.90;;;;;;5049866;28;20056;-84
2022/01/01 08:49:12;;;;;;;2.22;2.10;;;-0.40;99.90;;;;;;5051404;28;20102;-85
2022/01/01 08:52:00;;;;;;;2.30;2.10;;;-0.40;99.90;;;;;;5049507;28;20094;-85
2022/01/01 08:54:34;;;;;;;2.60;2.40;;;-0.40;99.90;;;;;;5042446;28;20147;-90
2022/01/01 08:57:03;;;;;;;2.63;2.40;;;-0.40;99.90;;;;;;5054899;28;20041;-86
2022/01/01 08:59:31;;;;;;;2.60;2.40;;;-0.40;99.90;;;;;;5045199;28;20158;-83
2022/01/01 09:01:59;;;;;;;3.05;2.85;;;-0.50;99.90;;;;;;5074599;28;20395;-84
2022/01/01 09:04:28;;;;;;;3.03;2.75;;;-0.50;99.90;;;;;;5073681;28;20615;-82
2022/01/01 09:06:56;;;;;;;3.78;2.92;;;-0.50;99.90;;;;;;5075222;28;20053;-83
2022/01/01 09:09:23;;;;;;;3.63;3.03;;;-0.50;99.90;;;;;;5050254;28;20041;-81
2022/01/01 09:11:51;;;;;;;3.50;3.20;;;-0.60;99.90;;;;;;5059584;28;20481;-79
2022/01/01 09:14:18;;;;;;;3.22;2.92;;;-0.60;99.90;;;;;;5029773;28;20041;-80
2022/01/01 09:16:46;;;;;;;3.22;3.03;;;-0.50;99.90;;;;;;5045084;28;20069;-87
2022/01/01 09:19:14;;;;;;;2.78;2.58;;;-0.60;99.90;;;;;;5047231;28;20429;-80
2022/01/01 09:21:43;;;;;;;3.30;3.05;;;-0.60;99.90;;;;;;5047744;28;20049;-82
2022/01/01 09:24:10;;;;;;;3.45;3.15;;;-0.60;99.90;;;;;;5049295;28;20052;-81
2022/01/01 09:26:38;;;;;;;3.70;3.17;;;-0.60;99.90;;;;;;5063522;28;20055;-85
2022/01/01 09:29:06;;;;;;;4.00;3.55;;;-0.70;99.90;;;;;;5049041;28;20094;-87
2022/01/01 09:31:34;;;;;;;3.47;3.17;;;-0.70;99.90;;;;;;5065538;28;20064;-87
2022/01/01 09:34:03;;;;;;;4.00;3.63;;;-0.70;99.90;;;;;;5048834;28;20037;-86
2022/01/01 09:36:31;;;;;;;3.50;3.20;;;-0.70;99.90;;;;;;5051075;28;20044;-89
2022/01/01 09:39:00;;;;;;;3.28;2.97;;;-0.80;99.90;;;;;;5050947;28;20091;-85
2022/01/01 09:41:27;;;;;;;3.58;3.28;;;-0.80;99.90;;;;;;5049647;28;20045;-83
2022/01/01 09:43:56;;;;;;;3.42;3.13;;;-0.90;99.90;;;;;;5046775;28;20140;-84
2022/01/01 09:46:26;;;;;;;3.45;3.15;;;-1.00;99.90;;;;;;5049857;28;20055;-85
2022/01/01 09:48:55;;;;;;;4.07;3.00;;;-1.00;99.90;;;;;;5049555;28;20048;-85
2022/01/01 09:51:22;;;;;;;3.58;3.25;;;-1.10;99.90;;;;;;5064891;28;20049;-84
2022/01/01 09:53:50;;;;;;;3.60;3.25;;;-1.10;99.90;;;;;;5046884;28;20224;-85
2022/01/01 09:56:20;;;;;;;3.50;3.20;;;-1.20;99.90;;;;;;5048296;28;20064;-83
2022/01/01 09:58:47;;;;;;;3.13;2.92;;;-1.20;99.90;;;;;;5040660;28;20572;-84
2022/01/01 10:01:15;;;;;;;4.03;3.70;;;-1.20;99.90;;;;;;5060571;28;20091;-77
2022/01/01 10:03:45;;;;;;;3.78;3.47;;;-1.10;99.90;;;;;;5049462;28;20048;-84
2022/01/01 10:06:16;;;;;;;4.63;3.65;;;-1.10;99.90;;;;;;5047163;28;20051;-78
2022/01/01 10:08:47;;;;;;;3.42;3.13;;;-1.20;99.90;;;;;;5046423;28;20121;-84
2022/01/01 10:11:19;;;;;;;4.25;2.92;;;-1.20;99.90;;;;;;5046520;28;20079;-80
2022/01/01 10:13:48;;;;;;;3.30;3.00;;;-1.20;99.90;;;;;;5049099;28;20048;-82
2022/01/01 10:16:16;;;;;;;4.22;3.20;;;-1.20;99.90;;;;;;5046928;28;20526;-85
2022/01/01 10:18:45;;;;;;;4.10;3.70;;;-1.30;99.90;;;;;;5046426;28;20118;-84
2022/01/01 10:21:16;;;;;;;4.95;4.45;;;-1.20;99.90;;;;;;5051118;28;21050;-84
2022/01/01 10:23:49;;;;;;;4.65;4.18;;;-1.10;99.90;;;;;;5040475;28;20045;-85
2022/01/01 10:29:17;;;;;;;4.28;3.88;;;-0.40;99.90;;;;;;4980132;28;20055;-79
2022/01/01 10:31:58;;;;;;;6.03;4.43;;;0.70;99.90;;;;;;5048402;28;20073;-79
2022/01/01 10:34:36;;;;;;;6.65;4.95;;;1.50;99.90;;;;;;5046904;28;20128;-80
2022/01/01 10:37:07;;;;;;;6.22;4.45;;;2.00;99.90;;;;;;5030746;28;20103;-78
2022/01/01 10:39:48;;;;;;;5.03;4.00;;;1.40;99.90;;;;;;5050792;28;20060;-78
2022/01/01 10:42:18;;;;;;;5.00;4.28;;;0.50;99.90;;;;;;5053567;28;20421;-76
2022/01/01 10:44:49;;;;;;;5.60;3.70;;;-0.30;99.90;;;;;;5053221;28;20146;-79
2022/01/01 10:47:21;;;;;;;6.50;4.18;;;-1.00;99.90;;;;;;5052661;28;20511;-80
2022/01/01 10:50:13;;;;;;;6.90;3.90;;;-1.30;99.90;;;;;;5049631;28;20068;-79
2022/01/01 10:52:45;;;;;;;4.60;3.80;;;-0.60;99.90;;;;;;5043577;28;20040;-76
2022/01/01 10:55:21;;;;;;;5.95;4.00;;;0.10;99.90;;;;;;5046326;28;20498;-79
2022/01/01 10:57:57;;;;;;;4.57;4.18;;;0.20;99.90;;;;;;5052335;28;20052;-77
2022/01/01 11:00:27;;;;;;;4.45;4.00;;;-0.30;99.90;;;;;;5051708;28;20056;-79
2022/01/01 11:02:57;;;;;;;4.60;3.70;;;-0.80;99.90;;;;;;5052497;28;20068;-79
2022/01/01 11:05:30;;;;;;;6.75;4.32;;;-1.30;99.90;;;;;;5023877;28;20053;-79
2022/01/01 11:07:58;;;;;;;4.30;3.55;;;-1.70;99.90;;;;;;5030050;28;20045;-79
2022/01/01 11:10:27;;;;;;;11.80;5.55;;;-2.00;99.90;;;;;;5032730;28;20132;-79
2022/01/01 11:12:59;;;;;;;3.30;3.00;;;-2.30;99.90;;;;;;5037192;28;20132;-79
2022/01/01 11:15:27;;;;;;;3.23;2.93;;;-2.50;99.90;;;;;;5029417;28;20060;-80
2022/01/01 11:17:59;;;;;;;4.93;3.42;;;-2.70;99.90;;;;;;5034016;28;20100;-86
2022/01/01 11:20:33;;;;;;;4.40;3.20;;;-2.80;99.90;;;;;;5033614;28;20075;-79
2022/01/01 11:23:08;;;;;;;6.90;3.38;;;-2.90;99.90;;;;;;5032412;28;20053;-79
2022/01/01 11:25:38;;;;;;;7.75;4.20;;;-3.00;99.90;;;;;;5032408;28;20053;-81
2022/01/01 11:28:12;;;;;;;6.50;4.32;;;-3.10;99.90;;;;;;5033745;28;20068;-79
2022/01/01 11:30:46;;;;;;;5.68;4.07;;;-3.10;99.90;;;;;;5064144;28;20041;-79
2022/01/01 11:33:18;;;;;;;4.70;3.40;;;-3.20;99.90;;;;;;5029373;28;20054;-78
2022/01/01 11:35:54;;;;;;;8.00;3.97;;;-3.20;99.90;;;;;;5020770;28;20049;-80
2022/01/01 11:38:23;;;;;;;4.82;3.95;;;-3.30;99.90;;;;;;5029082;28;20060;-76
2022/01/01 11:40:58;;;;;;;4.43;3.53;;;-3.30;99.90;;;;;;5031497;28;20041;-77
2022/01/01 11:43:41;;;;;;;6.18;3.95;;;-3.30;99.90;;;;;;5030522;28;20073;-78
2022/01/01 11:46:14;;;;;;;7.67;4.70;;;-3.30;99.90;;;;;;5031527;28;20072;-76
2022/01/01 11:48:51;;;;;;;5.55;3.90;;;-3.40;99.90;;;;;;5031659;28;20296;-79
2022/01/01 11:51:33;;;;;;;6.82;3.47;;;-3.40;99.90;;;;;;5033002;28;20462;-80
2022/01/01 11:54:28;;;;;;;4.53;3.17;;;-3.40;99.90;;;;;;5033132;28;20111;-80
2022/01/01 11:57:02;;;;;;;6.70;3.30;;;-3.50;99.90;;;;;;5032753;28;20099;-76
2022/01/01 11:59:40;;;;;;;4.22;2.78;;;-3.40;99.90;;;;;;5031861;28;20083;-78
2022/01/01 12:02:32;;;;;;;4.10;3.00;;;-3.20;99.90;;;;;;5013011;28;20050;-77
2022/01/01 12:05:19;;;;;;;4.10;3.08;;;-3.00;99.90;;;;;;5030322;28;20053;-78
2022/01/01 12:07:53;;;;;;;3.25;2.90;;;-3.10;99.90;;;;;;5031603;28;20100;-77
2022/01/01 12:10:33;;;;;;;5.10;2.63;;;-3.10;99.90;;;;;;5022610;28;20049;-80
2022/01/01 12:13:02;;;;;;;4.80;2.45;;;-3.20;99.90;;;;;;5040870;28;20392;-84
2022/01/01 12:15:51;;;;;;;3.65;2.50;;;-3.20;99.90;;;;;;5032678;28;20057;-80
2022/01/01 12:18:21;;;;;;;2.35;2.15;;;-3.30;99.90;;;;;;5030577;28;20045;-82
2022/01/01 12:20:57;;;;;;;3.65;2.70;;;-3.40;99.90;;;;;;5032200;28;20085;-82
2022/01/01 12:23:26;;;;;;;4.13;1.95;;;-3.40;99.90;;;;;;5062885;28;20521;-80
2022/01/01 12:25:56;;;;;;;3.50;2.95;;;-3.60;99.90;;;;;;5031619;28;20049;-81
2022/01/01 12:28:32;;;;;;;3.08;2.33;;;-3.60;99.90;;;;;;5047231;28;20103;-81
2022/01/01 12:31:10;;;;;;;7.40;2.90;;;-3.70;99.90;;;;;;5029383;28;20049;-80
2022/01/01 12:33:46;;;;;;;2.47;2.28;;;-3.80;99.90;;;;;;5029330;28;20087;-76
2022/01/01 12:36:15;;;;;;;3.53;2.45;;;-3.80;99.90;;;;;;5031387;28;20053;-75
2022/01/01 12:38:52;;;;;;;3.72;2.47;;;-3.90;99.90;;;;;;5059285;28;20100;-77
2022/01/01 12:41:22;;;;;;;3.63;2.50;;;-3.90;99.90;;;;;;5025121;28;20049;-77
2022/01/01 12:43:53;;;;;;;2.53;2.33;;;-4.00;99.90;;;;;;5031756;28;20453;-79
2022/01/01 12:46:28;;;;;;;3.58;2.40;;;-4.10;99.90;;;;;;5031123;28;20445;-80
2022/01/01 12:48:59;;;;;;;2.83;2.28;;;-4.10;99.90;;;;;;5030974;28;20129;-76
2022/01/01 12:51:29;;;;;;;3.22;2.20;;;-4.20;99.90;;;;;;5031764;28;20403;-76
2022/01/01 12:53:59;;;;;;;2.42;2.10;;;-4.20;99.90;;;;;;5029660;28;20045;-77
2022/01/01 12:56:28;;;;;;;4.88;2.38;;;-4.30;99.90;;;;;;5061630;28;20057;-82
2022/01/01 12:58:58;;;;;;;5.13;2.40;;;-4.30;99.90;;;;;;5013316;28;20064;-78
2022/01/01 13:01:36;;;;;;;5.43;2.80;;;-4.40;99.90;;;;;;5030113;28;20129;-79
2022/01/01 13:04:10;;;;;;;4.03;2.70;;;-4.40;99.90;;;;;;5026975;28;20478;-78
2022/01/01 13:06:39;;;;;;;5.05;2.22;;;-4.40;99.90;;;;;;5029434;28;21910;-80
2022/01/01 13:09:11;;;;;;;4.22;2.20;;;-4.50;99.90;;;;;;5031389;28;20414;-77